createdAt,value
2018-03-31T00:02:13.596Z,1001.5
2018-03-31T00:07:13.690Z,1001.5
2018-03-31T00:12:13.494Z,1001.5
2018-03-31T00:17:13.783Z,1001.2
2018-03-31T00:22:13.867Z,1001.2
2018-03-31T00:27:13.974Z,1001.1
2018-03-31T00:32:13.085Z,1001.1
2018-03-31T00:37:13.544Z,1001.1
2018-03-31T00:42:13.783Z,1001.1
2018-03-31T00:47:13.887Z,1000.9
2018-03-31T00:52:13.098Z,1000.9
2018-03-31T00:57:13.045Z,1000.7
2018-03-31T01:02:13.003Z,1000.7
2018-03-31T01:07:13.240Z,1000.6
2018-03-31T01:12:13.458Z,1000.6
2018-03-31T01:17:13.686Z,1000.6
2018-03-31T01:22:13.733Z,1000.6
2018-03-31T01:27:13.816Z,1000.6
2018-03-31T01:32:14.023Z,1000.6
2018-03-31T01:37:14.071Z,1000.6
2018-03-31T01:42:13.082Z,1000.6
2018-03-31T01:47:13.130Z,1000.6
2018-03-31T01:52:13.238Z,1000.6
2018-03-31T01:57:13.321Z,1000.5
2018-03-31T02:02:13.499Z,1000.5
2018-03-31T02:07:13.640Z,1000.5
2018-03-31T02:12:13.898Z,1000.5
2018-03-31T02:17:13.451Z,1000.4
2018-03-31T02:22:13.628Z,1000.4
2018-03-31T02:27:13.736Z,1000.4
2018-03-31T02:32:13.872Z,1000.4
2018-03-31T02:37:14.027Z,1000.4
2018-03-31T02:42:14.060Z,1000.4
2018-03-31T02:47:13.160Z,1000.2
2018-03-31T02:52:13.195Z,1000.2
2018-03-31T02:57:13.174Z,1000.2
2018-03-31T03:02:13.172Z,1000.2
2018-03-31T03:07:13.706Z,1000.2
2018-03-31T03:12:13.911Z,1000.2
2018-03-31T03:17:14.035Z,1000.1
2018-03-31T03:22:14.112Z,1000.1
2018-03-31T03:27:13.292Z,999.9
2018-03-31T03:32:13.422Z,999.9
2018-03-31T03:37:13.545Z,999.9
2018-03-31T03:42:13.654Z,999.9
2018-03-31T03:47:13.865Z,1000
2018-03-31T03:52:14.011Z,1000
2018-03-31T03:57:14.115Z,1000
2018-03-31T04:02:13.436Z,1000
2018-03-31T04:07:13.587Z,1000
2018-03-31T04:12:13.602Z,1000
2018-03-31T04:17:13.878Z,1000
2018-03-31T04:22:14.242Z,1000
2018-03-31T04:27:13.304Z,1000.1
2018-03-31T04:32:13.571Z,1000.1
2018-03-31T04:37:13.320Z,1000.1
2018-03-31T04:42:13.538Z,1000.1
2018-03-31T04:47:13.709Z,1000
2018-03-31T04:52:13.913Z,1000
2018-03-31T04:57:14.091Z,1000.1
2018-03-31T05:02:14.298Z,1000.1
2018-03-31T05:07:13.422Z,1000.1
2018-03-31T05:12:13.732Z,1000.1
2018-03-31T05:17:14.086Z,1000.2
2018-03-31T05:22:14.280Z,1000.2
2018-03-31T05:27:13.476Z,1000.3
2018-03-31T05:32:13.512Z,1000.3
2018-03-31T05:37:13.833Z,1000.3
2018-03-31T05:42:13.527Z,1000.3
2018-03-31T05:47:13.741Z,1000.3
2018-03-31T05:52:13.921Z,1000.3
2018-03-31T05:57:14.060Z,1000.1
2018-03-31T06:02:13.698Z,1000.1
2018-03-31T06:07:14.464Z,1000.1
2018-03-31T06:12:13.708Z,1000.1
2018-03-31T06:17:13.975Z,1000.1
2018-03-31T06:22:13.949Z,1000.1
2018-03-31T06:27:14.158Z,1000.1
2018-03-31T06:32:14.198Z,1000.1
2018-03-31T06:37:14.323Z,1000.1
2018-03-31T06:42:13.406Z,1000.1
2018-03-31T06:47:13.662Z,1000.1
2018-03-31T06:52:13.765Z,1000.1
2018-03-31T06:57:13.795Z,1000.1
2018-03-31T07:02:14.013Z,1000.1
2018-03-31T07:07:14.139Z,1000.1
2018-03-31T07:12:14.444Z,1000.1
2018-03-31T07:17:13.553Z,1000.3
2018-03-31T07:22:13.916Z,1000.3
2018-03-31T07:27:14.120Z,1000.3
2018-03-31T07:32:14.287Z,1000.3
2018-03-31T07:37:13.498Z,1000.3
2018-03-31T07:42:13.648Z,1000.3
2018-03-31T07:47:13.810Z,1000.3
2018-03-31T07:52:13.978Z,1000.3
2018-03-31T07:57:14.188Z,1000.1
2018-03-31T08:02:14.279Z,1000.1
2018-03-31T08:07:13.971Z,1000.1
2018-03-31T08:12:14.020Z,1000.1
2018-03-31T08:17:14.096Z,1000.2
2018-03-31T08:22:14.238Z,1000.2
2018-03-31T08:27:14.306Z,1000.4
2018-03-31T08:32:14.370Z,1000.4
2018-03-31T08:37:14.380Z,1000.4
2018-03-31T08:42:13.496Z,1000.4
2018-03-31T08:47:13.784Z,1000.5
2018-03-31T08:52:13.948Z,1000.5
2018-03-31T08:57:14.067Z,1000.4
2018-03-31T09:02:14.177Z,1000.4
2018-03-31T09:07:13.843Z,1000.4
2018-03-31T09:12:14.014Z,1000.4
2018-03-31T09:17:13.672Z,1000.5
2018-03-31T09:22:13.817Z,1000.5
2018-03-31T09:27:13.917Z,1000.4
2018-03-31T09:32:13.701Z,1000.4
2018-03-31T09:37:13.740Z,1000.4
2018-03-31T09:42:13.718Z,1000.4
2018-03-31T09:47:14.070Z,1000.4
2018-03-31T09:52:14.192Z,1000.4
2018-03-31T09:57:14.343Z,1000.3
2018-03-31T10:02:14.680Z,1000.3
2018-03-31T10:07:14.464Z,1000.2
2018-03-31T10:12:14.546Z,1000.2
2018-03-31T10:17:13.708Z,1000.1
2018-03-31T10:22:13.732Z,1000.1
2018-03-31T10:27:13.702Z,1000
2018-03-31T10:32:13.865Z,1000
2018-03-31T10:37:14.028Z,1000
2018-03-31T10:42:14.138Z,1000
2018-03-31T10:47:14.293Z,1000
2018-03-31T10:52:14.401Z,1000
2018-03-31T10:57:14.552Z,999.7
2018-03-31T11:02:14.787Z,999.7
2018-03-31T11:07:14.321Z,999.7
2018-03-31T11:12:14.531Z,999.7
2018-03-31T11:17:14.577Z,999.7
2018-03-31T11:22:14.652Z,999.7
2018-03-31T11:27:14.716Z,999.6
2018-03-31T11:32:13.826Z,999.6
2018-03-31T11:37:13.918Z,999.6
2018-03-31T11:42:14.014Z,999.6
2018-03-31T11:47:14.149Z,999.5
2018-03-31T11:52:14.258Z,999.5
2018-03-31T11:57:14.353Z,999.6
2018-03-31T12:02:14.797Z,999.6
2018-03-31T12:07:14.594Z,999.6
2018-03-31T12:12:13.794Z,999.6
2018-03-31T12:17:13.964Z,999.5
2018-03-31T12:22:14.088Z,999.5
2018-03-31T12:27:14.155Z,999.5
2018-03-31T12:32:14.313Z,999.5
2018-03-31T12:37:14.393Z,999.5
2018-03-31T12:42:14.703Z,999.5
2018-03-31T12:47:14.007Z,999.5
2018-03-31T12:52:14.335Z,999.5
2018-03-31T12:57:14.631Z,999.5
2018-03-31T13:02:14.848Z,999.5
2018-03-31T13:07:14.260Z,999.5
2018-03-31T13:12:13.928Z,999.5
2018-03-31T13:17:14.173Z,999.4
2018-03-31T13:22:14.421Z,999.4
2018-03-31T13:27:14.567Z,999.4
2018-03-31T13:32:14.734Z,999.4
2018-03-31T13:37:13.857Z,999.4
2018-03-31T13:42:14.068Z,999.4
2018-03-31T13:47:14.439Z,999.4
2018-03-31T13:52:13.998Z,999.4
2018-03-31T13:57:14.161Z,999.4
2018-03-31T14:02:14.198Z,999.4
2018-03-31T14:07:14.012Z,999.4
2018-03-31T14:12:13.930Z,999.4
2018-03-31T14:17:14.111Z,999.5
2018-03-31T14:22:14.209Z,999.5
2018-03-31T14:27:14.272Z,999.5
2018-03-31T14:32:14.454Z,999.5
2018-03-31T14:37:14.612Z,999.5
2018-03-31T14:42:14.914Z,999.5
2018-03-31T14:47:14.211Z,999.5
2018-03-31T14:52:14.432Z,999.5
2018-03-31T14:57:14.502Z,999.6
2018-03-31T15:02:14.759Z,999.6
2018-03-31T15:07:14.099Z,999.6
2018-03-31T15:12:14.734Z,999.6
2018-03-31T15:17:14.059Z,999.6
2018-03-31T15:22:14.196Z,999.6
2018-03-31T15:27:14.361Z,999.5
2018-03-31T15:32:14.576Z,999.5
2018-03-31T15:37:14.613Z,999.5
2018-03-31T15:42:14.651Z,999.5
2018-03-31T15:47:15.017Z,999.5
2018-03-31T15:52:14.168Z,999.5
2018-03-31T15:57:14.306Z,999.6
2018-03-31T16:02:14.529Z,999.6
2018-03-31T16:07:14.107Z,999.6
2018-03-31T16:12:14.276Z,999.6
2018-03-31T16:17:14.467Z,999.6
2018-03-31T16:22:14.573Z,999.6
2018-03-31T16:27:14.613Z,999.6
2018-03-31T16:32:14.781Z,999.6
2018-03-31T16:37:14.929Z,999.6
2018-03-31T16:42:15.027Z,999.6
2018-03-31T16:47:14.216Z,999.8
2018-03-31T16:52:14.375Z,999.8
2018-03-31T16:57:14.499Z,999.9
2018-03-31T17:02:14.206Z,999.9
2018-03-31T17:07:14.318Z,999.9
2018-03-31T17:12:14.679Z,999.9
2018-03-31T17:17:14.714Z,1000
2018-03-31T17:22:14.731Z,1000
2018-03-31T17:27:14.846Z,1000.1
2018-03-31T17:32:15.038Z,1000.1
2018-03-31T17:37:14.242Z,1000.1
2018-03-31T17:42:14.561Z,1000.1
2018-03-31T17:47:14.716Z,1000.1
2018-03-31T17:52:14.690Z,1000.1
2018-03-31T17:57:14.835Z,1000.1
2018-03-31T18:02:15.103Z,1000.1
2018-03-31T18:07:14.363Z,1000.1
2018-03-31T18:12:14.602Z,1000.1
2018-03-31T18:17:14.677Z,1000.1
2018-03-31T18:22:14.758Z,1000.1
2018-03-31T18:27:14.876Z,1000.1
2018-03-31T18:32:15.086Z,1000.1
2018-03-31T18:37:15.130Z,1000.1
2018-03-31T18:42:14.349Z,1000.1
2018-03-31T18:47:14.445Z,1000.3
2018-03-31T18:52:14.624Z,1000.3
2018-03-31T18:57:14.742Z,1000.4
2018-03-31T19:02:14.909Z,1000.4
2018-03-31T19:07:15.095Z,1000.4
2018-03-31T19:12:14.972Z,1000.4
2018-03-31T19:17:15.069Z,1000.4
2018-03-31T19:22:15.209Z,1000.4
2018-03-31T19:27:14.327Z,1000.4
2018-03-31T19:32:14.417Z,1000.4
2018-03-31T19:37:14.574Z,1000.4
2018-03-31T19:42:14.621Z,1000.4
2018-03-31T19:47:14.973Z,1000.2
2018-03-31T19:52:15.154Z,1000.2
2018-03-31T19:57:15.248Z,1000.1
2018-03-31T20:02:14.527Z,1000.1
2018-03-31T20:07:14.751Z,1000.1
2018-03-31T20:12:14.256Z,1000.1
2018-03-31T20:17:15.334Z,1000.1
2018-03-31T20:22:14.507Z,1000.1
2018-03-31T20:27:14.704Z,1000
2018-03-31T20:32:14.753Z,1000
2018-03-31T20:37:14.897Z,1000
2018-03-31T20:42:14.877Z,1000
2018-03-31T20:47:14.983Z,1000
2018-03-31T20:52:15.061Z,1000
2018-03-31T20:57:15.070Z,999.9
2018-03-31T21:02:15.456Z,999.9
2018-03-31T21:07:14.596Z,999.9
2018-03-31T21:12:14.508Z,999.9
2018-03-31T21:17:14.657Z,999.9
2018-03-31T21:22:14.854Z,999.9
2018-03-31T21:27:14.888Z,999.9
2018-03-31T21:32:15.042Z,999.9
2018-03-31T21:37:15.035Z,999.9
2018-03-31T21:42:15.038Z,999.9
2018-03-31T21:47:15.116Z,1000.1
2018-03-31T21:52:15.115Z,1000.1
2018-03-31T21:57:15.205Z,1000
2018-03-31T22:02:15.540Z,1000
2018-03-31T22:07:15.146Z,1000
2018-03-31T22:12:15.476Z,1000
2018-03-31T22:17:14.516Z,1000.1
2018-03-31T22:22:14.707Z,1000.1
2018-03-31T22:27:14.827Z,1000
2018-03-31T22:32:14.819Z,1000
2018-03-31T22:37:15.003Z,1000
2018-03-31T22:42:15.042Z,1000
2018-03-31T22:47:15.201Z,1000.1
2018-03-31T22:52:15.319Z,1000.1
2018-03-31T22:57:15.503Z,1000.1
2018-03-31T23:02:14.632Z,1000.1
2018-03-31T23:07:14.978Z,1000.1
2018-03-31T23:12:15.176Z,1000.1
2018-03-31T23:17:15.484Z,1000
2018-03-31T23:22:14.686Z,1000
2018-03-31T23:27:14.771Z,1000.1
2018-03-31T23:32:14.907Z,1000.1
2018-03-31T23:37:14.962Z,1000.1
2018-03-31T23:42:15.232Z,1000.1
2018-03-31T23:47:15.270Z,1000
2018-03-31T23:52:15.561Z,1000
2018-03-31T23:57:14.636Z,1000.1
